Friday, February 23, 2018, 7:59 PM GMT
Back to Local

CYWA, Petawawa, Ont.

Location: , , Canada Lat: 45.95
Local Time: 7:59 PM GMT (19:59 GMT) Lon: -77.317
Time Zone: GMT Elev: 426 ft

Show me the last for .
Show Decoded

2018-02-23 19:19 METAR CYWA 231919Z AUTO 14013KT 9SM OVC009 M03/M05 A3005 RMK ICG =
2018-02-23 19:07 METAR CYWA 231907Z AUTO 14012G17KT 7SM OVC013 M03/M05 A3006 RMK ICG =
2018-02-23 19:04 METAR CYWA 231904Z AUTO 13012G17KT 6SM -FZDZ OVC013 M03/M05 A3006 RMK ICG =
2018-02-23 19:00 METAR CYWA 231900Z AUTO 14014KT 5SM -FZDZ OVC015 M03/M05 A3007 RMK ICG PRESFR
                 SLP190 =
2018-02-23 18:53 METAR CYWA 231853Z AUTO 14014KT 4SM -FZDZ OVC015 M03/M05 A3008 RMK ICG =
2018-02-23 18:48 METAR CYWA 231848Z 13012KT 3SM -FZRA BR OVC017 M03/M05 A3008 RMK SC8 DA-1791FT
                 PRESFR LAST STFD OBS/NEXT 261300 UTC FROIN SLP196 =
2018-02-23 18:33 METAR CYWA 231833Z 14011KT 3SM -FZRA BR OVC019 M03/M06 A3011 RMK SC8 DA-1814FT
                 FROIN SLP204 =
2018-02-23 18:00 METAR CYWA 231800Z 13013KT 7SM -FZRA OVC019 M03/M07 A3013 RMK SC8 DA-1856FT
                 PRESFR PCPN VRY LGT FROIN SLP214 =
2018-02-23 17:11 METAR CYWA 231711Z 14015KT 7SM -FZDZ OVC023 M03/M07 A3018 RMK SC8 DA-1940FT
                 PRESFR FROIN SLP230 =
2018-02-23 17:00 METAR CYWA 231700Z 14013G19KT 15SM -FZRA OVC023 M03/M08 A3020 RMK SC8 DA-1939FT
                 PRESFR SLP235 =
2018-02-23 16:00 METAR CYWA 231600Z 14010KT 15SM FEW040 BKN085 OVC200 M03/M09 A3028 RMK SC1AC6CI1
                 DA-2036FT PRESFR SLP265 =
2018-02-23 15:00 METAR CYWA 231500Z 13010G15KT 15SM OVC088 M04/M11 A3036 RMK AC8 DA-2235FT PRESFR
                 SLP291 =
2018-02-23 14:00 METAR CYWA 231400Z 13013KT 15SM OVC088 M04/M11 A3042 RMK AC8 DA-2394FT SLP312 =
2018-02-23 13:00 METAR CYWA 231300Z 13010KT 15SM OVC089 M05/M09 A3046 RMK AC8 DA-2499FT SLP326 =
2018-02-23 12:00 METAR CYWA 231200Z 12006KT 090V160 15SM BKN089 M05/M09 A3049 RMK AC7 DA-2586FT
                 FST STFD OBS SLP335 =
2018-02-23 11:00 METAR CYWA 231100Z AUTO 13007KT 9SM FEW089 M05/M10 A3053 RMK SLP349 =
2018-02-23 10:00 METAR CYWA 231000Z AUTO 12006KT 9SM BKN091 M05/M10 A3056 RMK SLP359 =
2018-02-23 09:00 METAR CYWA 230900Z AUTO 12005KT 080V140 9SM OVC091 M05/M09 A3059 RMK SLP367 =
2018-02-23 08:00 METAR CYWA 230800Z AUTO 13006KT 9SM OVC095 M05/M10 A3063 RMK SLP381 =
2018-02-23 07:00 METAR CYWA 230700Z AUTO 11006KT 9SM CLR M05/M09 A3065 RMK SLP389 =
2018-02-23 06:00 METAR CYWA 230600Z AUTO 11005KT 9SM CLR M06/M10 A3065 RMK SLP391 =
2018-02-23 05:00 METAR CYWA 230500Z AUTO 11002KT 9SM CLR M06/M09 A3068 RMK SLP398 =
2018-02-23 04:00 METAR CYWA 230400Z AUTO 00000KT 9SM CLR M07/M10 A3070 RMK SLP405 =
2018-02-23 03:00 METAR CYWA 230300Z AUTO 00000KT 9SM CLR M08/M11 A3070 RMK SLP408 =
2018-02-23 02:00 METAR CYWA 230200Z AUTO 00000KT 9SM CLR M08/M11 A3070 RMK SLP408 =
2018-02-23 01:00 METAR CYWA 230100Z AUTO 00000KT 9SM CLR M06/M11 A3070 RMK SLP406 =
2018-02-23 00:00 METAR CYWA 230000Z AUTO 12002KT 9SM FEW099 M04/M12 A3071 RMK SLP411 =
2018-02-22 23:00 METAR CYWA 222300Z AUTO 14003KT 100V160 9SM CLR M03/M11 A3070 =
2018-02-22 22:00 METAR CYWA 222200Z AUTO 14004KT 9SM CLR M03/M11 A3069 =
2018-02-22 21:00 METAR CYWA 222100Z AUTO 12004KT 9SM CLR M02/M11 A3069 =
2018-02-22 20:00 METAR CYWA 222000Z AUTO 12005KT 9SM CLR M02/M11 A3071 =

Support USWX by starting your Amazon purchase here.